createdAt,value
2019-03-31T00:01:54.386Z,7.30
2019-03-31T00:04:24.793Z,7.20
2019-03-31T00:06:55.058Z,7.30
2019-03-31T00:09:26.386Z,7.20
2019-03-31T00:11:56.640Z,7.10
2019-03-31T00:14:26.890Z,7.10
2019-03-31T00:16:57.114Z,7.00
2019-03-31T00:19:27.350Z,7.00
2019-03-31T00:21:57.527Z,7.00
2019-03-31T00:24:27.840Z,7.00
2019-03-31T00:26:58.070Z,7.00
2019-03-31T00:29:28.311Z,6.90
2019-03-31T00:31:58.543Z,6.90
2019-03-31T00:34:28.773Z,6.80
2019-03-31T00:36:59.019Z,6.80
2019-03-31T00:39:29.273Z,6.80
2019-03-31T00:41:59.541Z,6.80
2019-03-31T00:44:29.773Z,6.80
2019-03-31T00:47:02.235Z,6.70
2019-03-31T00:49:31.986Z,6.70
2019-03-31T00:52:02.232Z,6.70
2019-03-31T00:54:32.568Z,6.70
2019-03-31T00:57:02.791Z,6.60
2019-03-31T00:59:33.099Z,6.60
2019-03-31T01:02:08.634Z,6.60
2019-03-31T01:04:39.263Z,6.60
2019-03-31T01:07:09.579Z,6.60
2019-03-31T01:09:39.883Z,6.60
2019-03-31T01:12:10.271Z,6.60
2019-03-31T01:14:40.527Z,6.60
2019-03-31T01:17:11.901Z,6.50
2019-03-31T01:19:42.155Z,6.50
2019-03-31T01:22:12.382Z,6.50
2019-03-31T01:24:42.613Z,6.50
2019-03-31T01:27:14.006Z,6.50
2019-03-31T01:29:44.195Z,6.40
2019-03-31T01:32:14.623Z,6.40
2019-03-31T01:34:44.856Z,6.50
2019-03-31T01:37:15.488Z,6.50
2019-03-31T01:39:46.031Z,6.40
2019-03-31T01:42:16.286Z,6.40
2019-03-31T01:44:46.501Z,6.40
2019-03-31T01:47:16.998Z,6.40
2019-03-31T01:49:47.382Z,6.40
2019-03-31T01:52:17.962Z,6.40
2019-03-31T01:54:48.134Z,6.40
2019-03-31T01:57:18.892Z,6.40
2019-03-31T01:59:49.110Z,6.40
2019-03-31T02:02:27.106Z,6.40
2019-03-31T02:04:57.333Z,6.40
2019-03-31T02:07:27.778Z,6.40
2019-03-31T02:09:57.946Z,6.40
2019-03-31T02:12:28.218Z,6.30
2019-03-31T02:14:58.426Z,6.30
2019-03-31T02:17:28.868Z,6.30
2019-03-31T02:19:59.115Z,6.30
2019-03-31T02:22:30.117Z,6.20
2019-03-31T02:25:00.431Z,6.20
2019-03-31T02:27:30.774Z,6.20
2019-03-31T02:30:01.028Z,6.20
2019-03-31T02:32:31.174Z,6.20
2019-03-31T02:35:01.524Z,6.20
2019-03-31T02:37:31.777Z,6.30
2019-03-31T02:40:01.968Z,6.20
2019-03-31T02:42:32.307Z,6.20
2019-03-31T02:45:02.524Z,6.20
2019-03-31T02:47:32.772Z,6.20
2019-03-31T02:50:03.008Z,6.20
2019-03-31T02:52:33.333Z,6.30
2019-03-31T02:55:04.201Z,6.20
2019-03-31T02:57:34.817Z,6.20
2019-03-31T03:00:05.477Z,6.20
2019-03-31T03:02:42.148Z,6.20
2019-03-31T03:05:18.935Z,6.20
2019-03-31T03:07:42.514Z,6.10
2019-03-31T03:10:12.922Z,6.20
2019-03-31T03:12:45.563Z,6.20
2019-03-31T03:15:26.074Z,6.10
2019-03-31T03:17:56.291Z,6.10
2019-03-31T03:20:26.506Z,6.10
2019-03-31T03:22:59.807Z,6.10
2019-03-31T03:25:29.999Z,6.10
2019-03-31T03:28:00.212Z,6.10
2019-03-31T03:30:30.515Z,6.10
2019-03-31T03:33:14.948Z,6.10
2019-03-31T03:35:32.812Z,6.20
2019-03-31T03:38:03.066Z,6.20
2019-03-31T03:40:33.246Z,6.30
2019-03-31T03:43:03.487Z,6.20
2019-03-31T03:45:33.691Z,6.20
2019-03-31T03:48:03.990Z,6.30
2019-03-31T03:50:34.199Z,6.20
2019-03-31T03:53:04.453Z,6.20
2019-03-31T03:55:34.638Z,6.10
2019-03-31T03:58:04.869Z,6.10
2019-03-31T04:00:35.069Z,6.10
2019-03-31T04:03:05.394Z,6.10
2019-03-31T04:05:35.799Z,6.10
2019-03-31T04:08:06.117Z,6.00
2019-03-31T04:11:15.658Z,6.00
2019-03-31T04:13:46.116Z,6.00
2019-03-31T04:16:16.431Z,5.90
2019-03-31T04:18:46.656Z,5.90
2019-03-31T04:21:16.895Z,5.90
2019-03-31T04:23:47.173Z,5.80
2019-03-31T04:26:18.582Z,5.80
2019-03-31T04:28:48.884Z,5.80
2019-03-31T04:31:19.066Z,5.80
2019-03-31T04:33:52.469Z,5.90
2019-03-31T04:36:21.183Z,5.90
2019-03-31T04:38:51.405Z,5.90
2019-03-31T04:41:21.637Z,5.90
2019-03-31T04:43:51.864Z,6.00
2019-03-31T04:46:22.044Z,6.10
2019-03-31T04:48:52.282Z,6.00
2019-03-31T04:51:22.467Z,6.10
2019-03-31T04:53:52.693Z,6.10
2019-03-31T04:56:22.864Z,6.20
2019-03-31T04:58:53.138Z,6.40
2019-03-31T05:01:23.346Z,6.70
2019-03-31T05:04:04.560Z,7.10
2019-03-31T05:06:25.498Z,7.70
2019-03-31T05:08:55.757Z,8.30
2019-03-31T05:11:25.949Z,8.70
2019-03-31T05:13:56.202Z,9.30
2019-03-31T05:16:26.463Z,9.90
2019-03-31T05:18:56.613Z,10.10
2019-03-31T05:21:26.810Z,10.10
2019-03-31T05:23:57.138Z,10.10
2019-03-31T05:26:27.329Z,10.10
2019-03-31T05:29:00.521Z,10.10
2019-03-31T05:31:30.779Z,10.30
2019-03-31T05:34:01.007Z,10.10
2019-03-31T05:36:31.214Z,10.30
2019-03-31T05:39:01.466Z,11.10
2019-03-31T05:41:31.697Z,12.20
2019-03-31T05:44:05.976Z,13.80
2019-03-31T05:46:33.834Z,15.20
2019-03-31T05:49:04.043Z,16.80
2019-03-31T05:51:34.269Z,17.80
2019-03-31T05:54:04.543Z,18.10
2019-03-31T05:56:34.770Z,19.00
2019-03-31T05:59:05.291Z,20.60
2019-03-31T06:01:35.534Z,21.20
2019-03-31T06:04:05.716Z,21.10
2019-03-31T06:06:37.168Z,21.90
2019-03-31T06:09:08.185Z,22.30
2019-03-31T06:11:38.485Z,22.80
2019-03-31T06:14:08.768Z,23.50
2019-03-31T06:16:39.134Z,23.60
2019-03-31T06:19:09.439Z,23.40
2019-03-31T06:21:39.667Z,22.20
2019-03-31T06:24:09.856Z,21.90
2019-03-31T06:26:40.127Z,22.20
2019-03-31T06:29:10.323Z,21.40
2019-03-31T06:31:40.616Z,20.90
2019-03-31T06:34:10.804Z,22.00
2019-03-31T06:36:41.043Z,23.00
2019-03-31T06:39:11.260Z,24.40
2019-03-31T06:41:41.624Z,23.80
2019-03-31T06:44:11.905Z,22.70
2019-03-31T06:46:42.155Z,21.20
2019-03-31T06:49:12.382Z,19.90
2019-03-31T06:51:42.610Z,18.70
2019-03-31T06:54:12.802Z,18.40
2019-03-31T06:56:43.066Z,17.60
2019-03-31T06:59:13.276Z,16.70
2019-03-31T07:01:43.515Z,16.20
2019-03-31T07:04:13.699Z,15.70
2019-03-31T07:06:43.969Z,15.60
2019-03-31T07:09:14.264Z,15.50
2019-03-31T07:11:44.503Z,15.50
2019-03-31T07:14:14.749Z,15.30
2019-03-31T07:16:45.095Z,15.20
2019-03-31T07:19:15.302Z,15.20
2019-03-31T07:21:45.553Z,15.20
2019-03-31T07:24:15.762Z,15.20
2019-03-31T07:26:45.994Z,15.20
2019-03-31T07:29:16.194Z,15.30
2019-03-31T07:31:46.454Z,15.60
2019-03-31T07:34:16.708Z,16.00
2019-03-31T07:36:46.878Z,16.40
2019-03-31T07:39:17.346Z,16.50
2019-03-31T07:41:47.708Z,17.20
2019-03-31T07:44:17.901Z,19.20
2019-03-31T07:46:48.186Z,20.80
2019-03-31T07:49:18.464Z,21.50
2019-03-31T07:51:48.690Z,23.60
2019-03-31T07:54:18.888Z,24.20
2019-03-31T07:56:49.137Z,22.30
2019-03-31T07:59:19.316Z,20.80
2019-03-31T08:01:49.564Z,19.70
2019-03-31T08:04:19.800Z,18.90
2019-03-31T08:06:50.082Z,17.80
2019-03-31T08:09:20.338Z,17.10
2019-03-31T08:11:50.569Z,16.80
2019-03-31T08:14:20.747Z,16.20
2019-03-31T08:16:56.888Z,16.30
2019-03-31T08:19:27.071Z,16.40
2019-03-31T08:21:57.305Z,16.20
2019-03-31T08:24:27.492Z,16.20
2019-03-31T08:26:57.750Z,16.00
2019-03-31T08:29:27.997Z,15.80
2019-03-31T08:31:58.346Z,15.60
2019-03-31T08:34:28.601Z,15.40
2019-03-31T08:37:00.066Z,15.80
2019-03-31T08:39:30.416Z,18.10
2019-03-31T08:42:00.681Z,21.40
2019-03-31T08:44:32.702Z,23.80
2019-03-31T08:47:03.391Z,25.80
2019-03-31T08:49:33.570Z,27.10
2019-03-31T08:52:04.091Z,26.80
2019-03-31T08:54:34.358Z,27.10
2019-03-31T08:57:04.617Z,27.30
2019-03-31T08:59:34.886Z,27.00
2019-03-31T09:02:22.994Z,26.80
2019-03-31T09:04:53.210Z,25.70
2019-03-31T09:07:23.531Z,23.60
2019-03-31T09:09:53.728Z,22.50
2019-03-31T09:12:23.977Z,22.00
2019-03-31T09:14:54.183Z,21.50
2019-03-31T09:17:24.503Z,21.20
2019-03-31T09:19:54.623Z,20.40
2019-03-31T09:22:24.882Z,20.00
2019-03-31T09:24:55.064Z,19.90
2019-03-31T09:27:25.359Z,20.20
2019-03-31T09:29:55.618Z,20.40
2019-03-31T09:32:27.119Z,19.90
2019-03-31T09:34:57.429Z,19.70
2019-03-31T09:37:27.767Z,19.40
2019-03-31T09:39:58.031Z,19.20
2019-03-31T09:42:28.283Z,19.00
2019-03-31T09:44:58.501Z,19.10
2019-03-31T09:47:28.774Z,19.10
2019-03-31T09:49:59.027Z,19.30
2019-03-31T09:52:29.287Z,19.50
2019-03-31T09:54:59.515Z,19.40
2019-03-31T09:57:29.817Z,19.20
2019-03-31T10:00:00.107Z,19.20
2019-03-31T10:02:30.582Z,19.10
2019-03-31T10:05:00.907Z,19.10
2019-03-31T10:07:31.384Z,19.10
2019-03-31T10:10:02.071Z,18.90
2019-03-31T10:12:32.320Z,18.60
2019-03-31T10:15:02.592Z,18.60
2019-03-31T10:17:32.942Z,18.40
2019-03-31T10:20:03.343Z,18.40
2019-03-31T10:22:33.553Z,18.50
2019-03-31T10:25:06.790Z,18.70
2019-03-31T10:27:37.190Z,18.40
2019-03-31T10:30:08.480Z,18.40
2019-03-31T10:32:38.723Z,18.50
2019-03-31T10:35:10.857Z,18.10
2019-03-31T10:37:41.042Z,18.00
2019-03-31T10:40:14.170Z,17.90
2019-03-31T10:42:44.377Z,17.90
2019-03-31T10:45:14.703Z,17.80
2019-03-31T10:47:44.883Z,17.80
2019-03-31T10:50:15.394Z,17.90
2019-03-31T10:52:48.413Z,18.00
2019-03-31T10:55:18.681Z,17.90
2019-03-31T10:57:48.898Z,17.90
2019-03-31T11:00:27.002Z,17.90
2019-03-31T11:02:57.316Z,18.10
2019-03-31T11:05:27.559Z,17.90
2019-03-31T11:07:57.842Z,17.90
2019-03-31T11:10:28.157Z,17.90
2019-03-31T11:12:58.385Z,18.10
2019-03-31T11:15:28.650Z,18.20
2019-03-31T11:17:58.901Z,18.20
2019-03-31T11:20:29.167Z,18.10
2019-03-31T11:23:17.039Z,18.20
2019-03-31T11:25:47.308Z,18.10
2019-03-31T11:28:17.699Z,18.10
2019-03-31T11:30:48.107Z,17.80
2019-03-31T11:33:18.368Z,17.90
2019-03-31T11:35:48.651Z,17.90
2019-03-31T11:38:18.865Z,17.90
2019-03-31T11:40:49.166Z,17.90
2019-03-31T11:43:19.380Z,17.60
2019-03-31T11:45:49.653Z,17.60
2019-03-31T11:48:19.897Z,17.60
2019-03-31T11:50:50.292Z,17.70
2019-03-31T11:53:20.492Z,17.70
2019-03-31T11:55:50.769Z,17.70
2019-03-31T11:58:21.022Z,17.70
2019-03-31T12:00:53.816Z,17.70
2019-03-31T12:03:24.081Z,17.80
2019-03-31T12:05:54.402Z,17.90
2019-03-31T12:08:24.676Z,18.30
2019-03-31T12:10:54.962Z,18.40
2019-03-31T12:13:25.281Z,18.20
2019-03-31T12:15:55.608Z,18.00
2019-03-31T12:18:25.906Z,18.00
2019-03-31T12:20:56.166Z,17.80
2019-03-31T12:23:26.428Z,17.60
2019-03-31T12:25:56.710Z,17.60
2019-03-31T12:28:26.953Z,17.60
2019-03-31T12:30:57.238Z,17.50
2019-03-31T12:33:27.497Z,17.40
2019-03-31T12:35:57.746Z,17.50
2019-03-31T12:38:28.081Z,17.60
2019-03-31T12:40:58.319Z,17.60
2019-03-31T12:43:28.543Z,17.20
2019-03-31T12:45:58.883Z,17.00
2019-03-31T12:48:31.630Z,17.00
2019-03-31T12:51:01.052Z,17.10
2019-03-31T12:53:31.324Z,16.80
2019-03-31T12:56:01.742Z,16.70
2019-03-31T12:58:32.089Z,16.90
2019-03-31T13:01:02.322Z,16.90
2019-03-31T13:03:32.610Z,17.00
2019-03-31T13:06:02.898Z,17.00
2019-03-31T13:08:33.280Z,16.90
2019-03-31T13:11:03.660Z,16.80
2019-03-31T13:13:33.936Z,16.90
2019-03-31T13:16:04.182Z,17.20
2019-03-31T13:18:34.477Z,17.00
2019-03-31T13:21:04.763Z,16.80
2019-03-31T13:23:34.968Z,16.70
2019-03-31T13:26:05.333Z,16.60
2019-03-31T13:28:35.559Z,16.60
2019-03-31T13:31:05.828Z,16.50
2019-03-31T13:33:36.185Z,16.40
2019-03-31T13:36:06.573Z,16.30
2019-03-31T13:38:36.946Z,16.20
2019-03-31T13:41:07.257Z,16.30
2019-03-31T13:43:37.554Z,16.40
2019-03-31T13:46:07.921Z,16.30
2019-03-31T13:48:38.560Z,16.40
2019-03-31T13:51:08.828Z,16.50
2019-03-31T13:53:39.168Z,16.70
2019-03-31T13:56:09.496Z,16.80
2019-03-31T13:58:42.695Z,16.80
2019-03-31T14:01:13.384Z,16.60
2019-03-31T14:03:43.681Z,16.30
2019-03-31T14:06:14.335Z,16.00
2019-03-31T14:08:44.559Z,15.80
2019-03-31T14:11:14.900Z,15.80
2019-03-31T14:13:45.123Z,15.60
2019-03-31T14:16:15.378Z,15.70
2019-03-31T14:18:45.697Z,15.70
2019-03-31T14:21:16.013Z,15.90
2019-03-31T14:23:46.252Z,15.90
2019-03-31T14:26:16.466Z,15.90
2019-03-31T14:28:46.596Z,15.70
2019-03-31T14:31:16.850Z,15.40
2019-03-31T14:33:47.079Z,15.30
2019-03-31T14:36:17.344Z,15.30
2019-03-31T14:38:47.524Z,15.20
2019-03-31T14:41:17.836Z,15.30
2019-03-31T14:43:51.007Z,15.40
2019-03-31T14:46:21.368Z,15.40
2019-03-31T14:48:51.598Z,15.40
2019-03-31T14:51:21.894Z,15.30
2019-03-31T14:53:55.074Z,15.10
2019-03-31T14:56:25.279Z,14.90
2019-03-31T14:58:55.545Z,14.90
2019-03-31T15:01:25.859Z,14.90
2019-03-31T15:03:56.149Z,14.80
2019-03-31T15:06:26.390Z,14.70
2019-03-31T15:08:58.971Z,14.50
2019-03-31T15:11:29.167Z,14.30
2019-03-31T15:13:59.556Z,14.10
2019-03-31T15:16:31.653Z,13.70
2019-03-31T15:19:02.006Z,13.40
2019-03-31T15:21:32.202Z,13.40
2019-03-31T15:24:02.450Z,13.30
2019-03-31T15:26:32.744Z,13.20
2019-03-31T15:29:02.986Z,13.10
2019-03-31T15:31:33.195Z,13.10
2019-03-31T15:34:03.478Z,13.10
2019-03-31T15:36:33.658Z,13.00
2019-03-31T15:39:09.028Z,12.90
2019-03-31T15:41:37.639Z,12.90
2019-03-31T15:44:08.006Z,12.80
2019-03-31T15:46:38.272Z,12.80
2019-03-31T15:49:08.563Z,12.70
2019-03-31T15:51:38.766Z,12.80
2019-03-31T15:54:09.112Z,12.70
2019-03-31T15:56:39.318Z,12.60
2019-03-31T15:59:09.566Z,12.60
2019-03-31T16:01:39.830Z,12.50
2019-03-31T16:04:10.063Z,12.40
2019-03-31T16:06:40.284Z,12.30
2019-03-31T16:09:22.791Z,12.30
2019-03-31T16:11:53.633Z,12.10
2019-03-31T16:14:14.645Z,12.10
2019-03-31T16:17:05.375Z,12.00
2019-03-31T16:19:51.207Z,11.90
2019-03-31T16:22:50.766Z,11.80
2019-03-31T16:25:22.388Z,11.80
2019-03-31T16:27:52.278Z,11.70
2019-03-31T16:30:22.024Z,11.60
2019-03-31T16:32:51.826Z,11.50
2019-03-31T16:35:21.531Z,11.40
2019-03-31T16:37:51.875Z,11.40
2019-03-31T16:40:21.608Z,11.30
2019-03-31T16:42:59.781Z,11.20
2019-03-31T16:45:29.507Z,11.20
2019-03-31T16:48:02.592Z,11.10
2019-03-31T16:50:32.272Z,11.20
2019-03-31T16:53:02.770Z,11.10
2019-03-31T16:55:35.273Z,10.90
2019-03-31T16:58:05.497Z,10.90
2019-03-31T17:00:36.297Z,10.80
2019-03-31T17:03:05.950Z,10.70
2019-03-31T17:05:36.953Z,10.60
2019-03-31T17:08:06.738Z,10.50
2019-03-31T17:10:39.613Z,10.40
2019-03-31T17:13:09.322Z,10.20
2019-03-31T17:15:39.015Z,10.10
2019-03-31T17:18:08.738Z,10.00
2019-03-31T17:20:38.490Z,9.90
2019-03-31T17:23:08.150Z,9.80
2019-03-31T17:25:37.858Z,9.80
2019-03-31T17:28:10.203Z,9.70
2019-03-31T17:30:38.902Z,9.60
2019-03-31T17:33:08.595Z,9.60
2019-03-31T17:35:38.371Z,9.50
2019-03-31T17:38:08.133Z,9.50
2019-03-31T17:40:40.216Z,9.40
2019-03-31T17:43:09.960Z,9.30
2019-03-31T17:45:41.605Z,9.30
2019-03-31T17:48:11.281Z,9.30
2019-03-31T17:50:41.058Z,9.20
2019-03-31T17:53:11.631Z,9.20
2019-03-31T17:55:42.080Z,9.10
2019-03-31T17:58:17.668Z,9.10
2019-03-31T18:00:43.299Z,9.10
2019-03-31T18:03:15.539Z,9.00
2019-03-31T18:05:45.596Z,9.00
2019-03-31T18:08:18.071Z,8.90
2019-03-31T18:10:47.926Z,8.90
2019-03-31T18:13:17.880Z,8.80
2019-03-31T18:15:49.643Z,8.80
2019-03-31T18:18:19.444Z,8.80
2019-03-31T18:20:49.716Z,8.70
2019-03-31T18:23:19.507Z,8.70
2019-03-31T18:25:49.546Z,8.60
2019-03-31T18:28:19.413Z,8.60
2019-03-31T18:30:49.264Z,8.60
2019-03-31T18:33:19.155Z,8.60
2019-03-31T18:35:49.234Z,8.50
2019-03-31T18:38:18.897Z,8.50
2019-03-31T18:40:49.906Z,8.50
2019-03-31T18:43:19.655Z,8.50
2019-03-31T18:45:49.411Z,8.50
2019-03-31T18:48:19.050Z,8.40
2019-03-31T18:50:48.748Z,8.40
2019-03-31T18:53:31.611Z,8.40
2019-03-31T18:56:10.026Z,8.40
2019-03-31T18:59:07.728Z,8.30
2019-03-31T19:02:11.780Z,8.30
2019-03-31T19:04:54.479Z,8.30
2019-03-31T19:07:52.257Z,8.20
2019-03-31T19:10:49.373Z,8.20
2019-03-31T19:13:23.408Z,8.20
2019-03-31T19:16:15.105Z,8.10
2019-03-31T19:19:13.028Z,8.20
2019-03-31T19:21:51.112Z,8.10
2019-03-31T19:24:41.574Z,8.10
2019-03-31T19:27:29.332Z,8.10
2019-03-31T19:30:23.883Z,8.10
2019-03-31T19:33:12.569Z,8.10
2019-03-31T19:35:53.625Z,8.00
2019-03-31T19:38:32.010Z,7.90
2019-03-31T19:41:08.409Z,7.90
2019-03-31T19:43:57.018Z,7.80
2019-03-31T19:47:03.833Z,7.80
2019-03-31T19:50:01.591Z,7.80
2019-03-31T19:52:45.556Z,7.80
2019-03-31T19:55:31.018Z,7.70
2019-03-31T19:58:31.808Z,7.70
2019-03-31T20:01:23.371Z,7.60
2019-03-31T20:04:02.227Z,7.50
2019-03-31T20:06:39.649Z,7.50
2019-03-31T20:09:28.773Z,7.50
2019-03-31T20:12:20.298Z,7.50
2019-03-31T20:15:27.451Z,7.40
2019-03-31T20:18:14.114Z,7.40
2019-03-31T20:20:56.454Z,7.40
2019-03-31T20:23:53.981Z,7.30
2019-03-31T20:26:43.006Z,7.30
2019-03-31T20:29:25.517Z,7.30
2019-03-31T20:32:05.307Z,7.30
2019-03-31T20:35:12.097Z,7.30
2019-03-31T20:37:58.386Z,7.30
2019-03-31T20:40:56.505Z,7.30
2019-03-31T20:43:44.063Z,7.20
2019-03-31T20:46:13.907Z,7.20
2019-03-31T20:48:43.994Z,7.20
2019-03-31T20:51:14.103Z,7.10
2019-03-31T20:53:47.229Z,7.10
2019-03-31T20:56:18.015Z,7.00
2019-03-31T20:58:48.034Z,6.90
2019-03-31T21:01:20.451Z,6.90
2019-03-31T21:03:50.380Z,6.80
2019-03-31T21:06:20.172Z,6.70
2019-03-31T21:08:50.250Z,6.70
2019-03-31T21:11:23.784Z,6.60
2019-03-31T21:13:56.991Z,6.50
2019-03-31T21:16:25.767Z,6.60
2019-03-31T21:18:55.875Z,6.50
2019-03-31T21:21:26.065Z,6.50
2019-03-31T21:23:55.940Z,6.40
2019-03-31T21:26:26.402Z,6.30
2019-03-31T21:28:57.826Z,6.20
2019-03-31T21:31:27.964Z,6.20
2019-03-31T21:34:00.239Z,6.20
2019-03-31T21:36:30.208Z,6.20
2019-03-31T21:39:00.117Z,6.10
2019-03-31T21:41:30.480Z,6.10
2019-03-31T21:44:00.287Z,6.10
2019-03-31T21:46:30.310Z,6.10
2019-03-31T21:49:00.369Z,6.00
2019-03-31T21:51:30.280Z,6.00
2019-03-31T21:54:03.205Z,6.00
2019-03-31T21:56:32.876Z,6.00
2019-03-31T21:59:02.837Z,6.00
2019-03-31T22:01:32.899Z,5.90
2019-03-31T22:04:02.652Z,5.80
2019-03-31T22:06:32.323Z,5.80
2019-03-31T22:09:02.050Z,5.80
2019-03-31T22:11:31.757Z,5.80
2019-03-31T22:14:01.484Z,5.80
2019-03-31T22:16:31.167Z,5.70
2019-03-31T22:19:00.911Z,5.70
2019-03-31T22:21:30.705Z,5.60
2019-03-31T22:24:03.412Z,5.50
2019-03-31T22:26:34.239Z,5.50
2019-03-31T22:29:04.022Z,5.50
2019-03-31T22:31:33.678Z,5.40
2019-03-31T22:34:03.368Z,5.30
2019-03-31T22:36:33.143Z,5.30
2019-03-31T22:39:02.892Z,5.20
2019-03-31T22:41:32.609Z,5.20
2019-03-31T22:44:02.283Z,5.20
2019-03-31T22:46:31.928Z,5.10
2019-03-31T22:49:02.099Z,5.00
2019-03-31T22:51:31.775Z,5.00
2019-03-31T22:54:01.501Z,5.00
2019-03-31T22:56:31.182Z,4.90
2019-03-31T22:59:00.920Z,4.90
2019-03-31T23:01:31.734Z,4.90
2019-03-31T23:04:01.466Z,4.80
2019-03-31T23:06:31.109Z,4.70
2019-03-31T23:09:00.779Z,4.70
2019-03-31T23:11:30.539Z,4.60
2019-03-31T23:14:00.257Z,4.60
2019-03-31T23:16:29.930Z,4.50
2019-03-31T23:18:59.639Z,4.50
2019-03-31T23:21:29.322Z,4.40
2019-03-31T23:23:59.023Z,4.40
2019-03-31T23:26:28.686Z,4.30
2019-03-31T23:28:58.393Z,4.30
2019-03-31T23:31:28.076Z,4.30
2019-03-31T23:33:57.800Z,4.20
2019-03-31T23:36:27.436Z,4.20
2019-03-31T23:38:58.549Z,4.10
2019-03-31T23:41:28.481Z,4.00
2019-03-31T23:43:58.326Z,4.00
2019-03-31T23:46:27.990Z,4.00
2019-03-31T23:48:57.647Z,4.00
2019-03-31T23:51:27.740Z,4.00
2019-03-31T23:53:57.380Z,4.00
2019-03-31T23:56:27.073Z,3.90
2019-03-31T23:58:56.747Z,3.90
